createdAt,value
2023-04-07T00:01:08.501Z,97833.25
2023-04-07T00:03:35.947Z,97827.75
2023-04-07T00:06:02.706Z,97825.25
2023-04-07T00:08:29.432Z,97825.44
2023-04-07T00:10:56.409Z,97823.63
2023-04-07T00:13:23.083Z,97822.53
2023-04-07T00:15:49.862Z,97822.75
2023-04-07T00:18:16.628Z,97817.44
2023-04-07T00:20:43.268Z,97818.59
2023-04-07T00:23:09.960Z,97819.78
2023-04-07T00:25:36.629Z,97823.19
2023-04-07T00:28:03.664Z,97820.47
2023-04-07T00:30:30.469Z,97824.25
2023-04-07T00:32:57.394Z,97817.06
2023-04-07T00:35:24.197Z,97814.09
2023-04-07T00:37:50.890Z,97810.22
2023-04-07T00:40:17.576Z,97809.41
2023-04-07T00:42:44.237Z,97810.22
2023-04-07T00:45:11.712Z,97807.78
2023-04-07T00:47:38.520Z,97805.47
2023-04-07T00:50:05.492Z,97802.62
2023-04-07T00:52:35.467Z,97804.38
2023-04-07T00:55:02.112Z,97809.22
2023-04-07T00:57:28.930Z,97797.78
2023-04-07T00:59:55.714Z,97807.38
2023-04-07T01:02:41.635Z,97797.53
2023-04-07T01:05:11.624Z,97800.88
2023-04-07T01:07:38.512Z,97798.69
2023-04-07T01:10:05.974Z,97793.56
2023-04-07T01:12:36.951Z,97795.97
2023-04-07T01:15:10.428Z,97795.50
2023-04-07T01:17:38.220Z,97792.16
2023-04-07T01:20:08.102Z,97789.81
2023-04-07T01:22:42.420Z,97777.78
2023-04-07T01:25:30.816Z,97785.50
2023-04-07T01:28:26.635Z,97796.53
2023-04-07T01:30:53.295Z,97796.28
2023-04-07T01:33:19.945Z,97787.81
2023-04-07T01:35:46.581Z,97789.97
2023-04-07T01:38:13.299Z,97783.00
2023-04-07T01:40:40.070Z,97781.69
2023-04-07T01:43:06.755Z,97784.38
2023-04-07T01:45:34.639Z,97788.75
2023-04-07T01:48:01.786Z,97781.72
2023-04-07T01:50:28.615Z,97778.22
2023-04-07T01:52:55.384Z,97777.47
2023-04-07T01:55:22.430Z,97779.88
2023-04-07T01:57:49.119Z,97773.50
2023-04-07T02:00:15.967Z,97771.06
2023-04-07T02:02:45.004Z,97765.13
2023-04-07T02:05:13.330Z,97773.41
2023-04-07T02:07:39.998Z,97770.94
2023-04-07T02:10:07.487Z,97770.00
2023-04-07T02:12:34.157Z,97770.25
2023-04-07T02:15:00.961Z,97776.34
2023-04-07T02:17:27.755Z,97774.75
2023-04-07T02:19:54.512Z,97771.41
2023-04-07T02:22:21.285Z,97766.88
2023-04-07T02:24:47.981Z,97767.28
2023-04-07T02:27:14.707Z,97769.72
2023-04-07T02:29:41.446Z,97755.44
2023-04-07T02:32:08.255Z,97772.03
2023-04-07T02:34:35.051Z,97767.19
2023-04-07T02:37:01.815Z,97774.44
2023-04-07T02:39:28.582Z,97774.72
2023-04-07T02:41:55.257Z,97766.56
2023-04-07T02:44:21.934Z,97768.84
2023-04-07T02:46:48.595Z,97770.25
2023-04-07T02:49:15.312Z,97764.91
2023-04-07T02:51:42.018Z,97768.69
2023-04-07T02:54:08.718Z,97773.94
2023-04-07T02:56:35.469Z,97784.09
2023-04-07T02:59:02.174Z,97769.41
2023-04-07T03:01:28.914Z,97782.00
2023-04-07T03:03:56.278Z,97771.22
2023-04-07T03:06:23.158Z,97778.59
2023-04-07T03:08:49.861Z,97776.84
2023-04-07T03:11:16.522Z,97768.56
2023-04-07T03:13:43.172Z,97768.50
2023-04-07T03:16:09.811Z,97769.03
2023-04-07T03:18:36.472Z,97758.47
2023-04-07T03:21:03.744Z,97759.13
2023-04-07T03:23:30.483Z,97770.59
2023-04-07T03:25:58.081Z,97768.72
2023-04-07T03:28:24.736Z,97762.38
2023-04-07T03:30:51.531Z,97760.56
2023-04-07T03:33:18.261Z,97768.94
2023-04-07T03:35:45.018Z,97774.34
2023-04-07T03:38:11.677Z,97782.31
2023-04-07T03:40:38.340Z,97766.19
2023-04-07T03:43:05.093Z,97767.06
2023-04-07T03:45:33.453Z,97754.16
2023-04-07T03:48:00.236Z,97755.38
2023-04-07T03:50:27.007Z,97752.44
2023-04-07T03:52:53.702Z,97778.19
2023-04-07T03:55:20.661Z,97752.91
2023-04-07T03:57:47.313Z,97759.53
2023-04-07T04:00:14.301Z,97765.13
2023-04-07T04:02:41.096Z,97766.63
2023-04-07T04:05:07.836Z,97757.38
2023-04-07T04:07:34.508Z,97758.13
2023-04-07T04:10:01.211Z,97757.25
2023-04-07T04:12:27.862Z,97754.63
2023-04-07T04:14:54.521Z,97765.72
2023-04-07T04:17:21.211Z,97753.25
2023-04-07T04:19:47.993Z,97751.91
2023-04-07T04:22:14.727Z,97758.63
2023-04-07T04:24:42.154Z,97767.00
2023-04-07T04:27:08.862Z,97763.00
2023-04-07T04:29:35.564Z,97773.22
2023-04-07T04:32:02.207Z,97774.59
2023-04-07T04:34:28.860Z,97767.50
2023-04-07T04:36:55.877Z,97749.81
2023-04-07T04:39:22.631Z,97765.63
2023-04-07T04:41:49.265Z,97770.91
2023-04-07T04:44:16.164Z,97771.16
2023-04-07T04:46:42.851Z,97777.16
2023-04-07T04:49:09.823Z,97781.69
2023-04-07T04:51:36.545Z,97788.53
2023-04-07T04:54:04.176Z,97785.88
2023-04-07T04:56:30.973Z,97792.06
2023-04-07T04:58:57.650Z,97794.03
2023-04-07T05:01:24.315Z,97797.91
2023-04-07T05:03:51.248Z,97792.38
2023-04-07T05:06:18.196Z,97787.81
2023-04-07T05:08:44.923Z,97797.38
2023-04-07T05:11:11.911Z,97787.78
2023-04-07T05:13:38.637Z,97789.84
2023-04-07T05:16:05.674Z,97790.59
2023-04-07T05:18:32.476Z,97791.03
2023-04-07T05:20:59.212Z,97787.53
2023-04-07T05:23:25.914Z,97793.88
2023-04-07T05:25:52.593Z,97798.97
2023-04-07T05:28:19.386Z,97797.56
2023-04-07T05:30:46.181Z,97804.66
2023-04-07T05:33:13.471Z,97806.34
2023-04-07T05:35:40.111Z,97806.66
2023-04-07T05:38:06.813Z,97794.09
2023-04-07T05:40:35.032Z,97793.47
2023-04-07T05:43:02.965Z,97783.25
2023-04-07T05:45:29.624Z,97785.72
2023-04-07T05:47:56.409Z,97795.22
2023-04-07T05:50:23.151Z,97798.78
2023-04-07T05:52:49.884Z,97791.75
2023-04-07T05:55:16.533Z,97796.97
2023-04-07T05:57:43.245Z,97792.75
2023-04-07T06:00:10.983Z,97794.03
2023-04-07T06:02:37.788Z,97800.09
2023-04-07T06:05:04.784Z,97796.28
2023-04-07T06:07:31.518Z,97801.41
2023-04-07T06:09:58.232Z,97809.88
2023-04-07T06:12:24.921Z,97803.28
2023-04-07T06:14:52.767Z,97797.44
2023-04-07T06:17:19.532Z,97805.50
2023-04-07T06:19:46.412Z,97805.37
2023-04-07T06:22:13.133Z,97804.69
2023-04-07T06:24:39.825Z,97813.44
2023-04-07T06:27:06.923Z,97813.34
2023-04-07T06:29:33.915Z,97805.28
2023-04-07T06:32:01.100Z,97804.06
2023-04-07T06:34:27.793Z,97797.13
2023-04-07T06:36:55.194Z,97796.88
2023-04-07T06:39:22.588Z,97798.56
2023-04-07T06:41:49.329Z,97805.78
2023-04-07T06:44:15.977Z,97803.97
2023-04-07T06:46:42.729Z,97812.09
2023-04-07T06:49:09.389Z,97804.44
2023-04-07T06:51:36.170Z,97807.44
2023-04-07T06:54:02.895Z,97800.38
2023-04-07T06:56:29.645Z,97792.16
2023-04-07T06:58:56.396Z,97798.16
2023-04-07T07:01:23.069Z,97799.09
2023-04-07T07:03:50.133Z,97798.37
2023-04-07T07:06:16.992Z,97802.03
2023-04-07T07:08:43.704Z,97812.22
2023-04-07T07:11:10.478Z,97809.31
2023-04-07T07:13:37.265Z,97816.38
2023-04-07T07:16:04.133Z,97824.41
2023-04-07T07:18:31.860Z,97822.25
2023-04-07T07:20:58.591Z,97815.25
2023-04-07T07:23:25.315Z,97822.28
2023-04-07T07:25:51.965Z,97822.84
2023-04-07T07:28:18.698Z,97819.38
2023-04-07T07:30:45.413Z,97826.50
2023-04-07T07:33:14.653Z,97834.31
2023-04-07T07:35:41.463Z,97827.44
2023-04-07T07:38:08.197Z,97830.44
2023-04-07T07:40:34.938Z,97832.47
2023-04-07T07:43:01.613Z,97826.44
2023-04-07T07:45:28.259Z,97835.34
2023-04-07T07:47:54.940Z,97837.59
2023-04-07T07:50:21.596Z,97840.69
2023-04-07T07:52:48.443Z,97842.09
2023-04-07T07:55:15.119Z,97847.22
2023-04-07T07:57:41.894Z,97851.72
2023-04-07T08:00:08.991Z,97852.13
2023-04-07T08:02:36.749Z,97854.53
2023-04-07T08:05:03.552Z,97848.00
2023-04-07T08:07:30.896Z,97858.97
2023-04-07T08:09:57.603Z,97862.53
2023-04-07T08:12:24.254Z,97860.91
2023-04-07T08:14:51.050Z,97860.41
2023-04-07T08:17:17.714Z,97868.19
2023-04-07T08:19:44.435Z,97853.25
2023-04-07T08:22:11.085Z,97855.84
2023-04-07T08:24:37.762Z,97866.50
2023-04-07T08:27:04.638Z,97859.50
2023-04-07T08:29:32.365Z,97866.41
2023-04-07T08:31:59.153Z,97855.47
2023-04-07T08:34:25.902Z,97855.62
2023-04-07T08:36:52.614Z,97865.31
2023-04-07T08:39:19.733Z,97870.34
2023-04-07T08:41:46.725Z,97866.09
2023-04-07T08:44:13.542Z,97868.88
2023-04-07T08:46:40.626Z,97877.56
2023-04-07T08:49:11.323Z,97879.63
2023-04-07T08:51:38.350Z,97874.37
2023-04-07T08:54:11.668Z,97881.87
2023-04-07T08:56:38.793Z,97879.56
2023-04-07T08:59:06.554Z,97886.78
2023-04-07T09:01:33.447Z,97876.28
2023-04-07T09:04:00.327Z,97868.56
2023-04-07T09:06:27.515Z,97885.38
2023-04-07T09:08:55.299Z,97890.59
2023-04-07T09:11:23.532Z,97891.94
2023-04-07T09:13:50.764Z,97886.25
2023-04-07T09:16:17.504Z,97879.97
2023-04-07T09:18:44.233Z,97875.19
2023-04-07T09:21:12.164Z,97878.00
2023-04-07T09:23:40.135Z,97885.31
2023-04-07T09:26:19.588Z,97871.06
2023-04-07T09:28:46.933Z,97882.53
2023-04-07T09:31:13.804Z,97887.81
2023-04-07T09:33:40.776Z,97886.84
2023-04-07T09:36:07.565Z,97892.22
2023-04-07T09:38:38.298Z,97886.59
2023-04-07T09:41:09.021Z,97892.78
2023-04-07T09:43:37.728Z,97888.66
2023-04-07T09:46:08.682Z,97889.87
2023-04-07T09:48:35.411Z,97888.47
2023-04-07T09:51:05.807Z,97893.97
2023-04-07T09:53:42.215Z,97897.06
2023-04-07T09:56:11.884Z,97898.25
2023-04-07T09:58:40.035Z,97898.81
2023-04-07T10:01:09.883Z,97902.56
2023-04-07T10:03:37.430Z,97902.50
2023-04-07T10:06:04.604Z,97912.72
2023-04-07T10:08:31.830Z,97900.66
2023-04-07T10:10:59.147Z,97896.25
2023-04-07T10:13:26.086Z,97900.78
2023-04-07T10:15:52.771Z,97902.38
2023-04-07T10:18:20.057Z,97900.28
2023-04-07T10:20:46.780Z,97909.12
2023-04-07T10:23:14.641Z,97905.03
2023-04-07T10:25:41.518Z,97904.84
2023-04-07T10:28:08.743Z,97911.94
2023-04-07T10:30:35.611Z,97909.88
2023-04-07T10:33:02.725Z,97915.59
2023-04-07T10:35:29.932Z,97902.09
2023-04-07T10:38:13.827Z,97906.00
2023-04-07T10:40:41.280Z,97902.41
2023-04-07T10:43:11.657Z,97901.31
2023-04-07T10:45:52.453Z,97906.66
2023-04-07T10:48:19.493Z,97913.75
2023-04-07T10:50:46.583Z,97909.81
2023-04-07T10:53:14.233Z,97912.28
2023-04-07T10:55:41.320Z,97915.16
2023-04-07T10:58:14.876Z,97917.63
2023-04-07T11:00:41.586Z,97919.59
2023-04-07T11:03:14.798Z,97903.75
2023-04-07T11:05:41.855Z,97905.41
2023-04-07T11:08:08.626Z,97906.38
2023-04-07T11:10:35.897Z,97906.06
2023-04-07T11:13:03.684Z,97905.37
2023-04-07T11:15:30.621Z,97908.75
2023-04-07T11:18:26.783Z,97909.84
2023-04-07T11:21:00.145Z,97914.41
2023-04-07T11:23:27.649Z,97917.72
2023-04-07T11:26:01.399Z,97917.41
2023-04-07T11:28:28.284Z,97917.41
2023-04-07T11:30:55.142Z,97919.16
2023-04-07T11:33:22.974Z,97917.59
2023-04-07T11:35:49.665Z,97922.34
2023-04-07T11:38:16.678Z,97915.91
2023-04-07T11:40:43.461Z,97922.38
2023-04-07T11:43:17.481Z,97910.22
2023-04-07T11:45:44.337Z,97922.38
2023-04-07T11:48:31.276Z,97922.91
2023-04-07T11:50:57.962Z,97921.69
2023-04-07T11:53:27.628Z,97916.03
2023-04-07T11:56:16.825Z,97915.41
2023-04-07T11:58:50.053Z,97917.59
2023-04-07T12:01:16.786Z,97908.06
2023-04-07T12:04:00.054Z,97910.78
2023-04-07T12:06:29.282Z,97909.84
2023-04-07T12:08:55.984Z,97910.75
2023-04-07T12:11:22.821Z,97907.34
2023-04-07T12:13:49.859Z,97909.22
2023-04-07T12:16:16.828Z,97917.38
2023-04-07T12:18:43.906Z,97912.44
2023-04-07T12:21:10.570Z,97919.78
2023-04-07T12:23:37.214Z,97918.53
2023-04-07T12:26:03.921Z,97923.41
2023-04-07T12:28:30.726Z,97920.91
2023-04-07T12:30:57.375Z,97912.69
2023-04-07T12:33:24.072Z,97909.72
2023-04-07T12:35:50.834Z,97920.19
2023-04-07T12:38:17.546Z,97921.03
2023-04-07T12:40:44.188Z,97919.25
2023-04-07T12:43:11.054Z,97920.06
2023-04-07T12:45:37.876Z,97913.81
2023-04-07T12:48:05.531Z,97914.09
2023-04-07T12:50:32.231Z,97917.28
2023-04-07T12:53:05.509Z,97918.28
2023-04-07T12:55:33.824Z,97912.03
2023-04-07T12:58:00.679Z,97920.81
2023-04-07T13:00:27.385Z,97911.63
2023-04-07T13:02:54.181Z,97918.44
2023-04-07T13:05:20.966Z,97915.31
2023-04-07T13:07:49.628Z,97921.16
2023-04-07T13:10:16.518Z,97912.75
2023-04-07T13:12:43.448Z,97912.09
2023-04-07T13:15:10.227Z,97911.94
2023-04-07T13:17:37.227Z,97918.16
2023-04-07T13:20:04.585Z,97920.16
2023-04-07T13:22:32.251Z,97914.41
2023-04-07T13:25:00.235Z,97917.00
2023-04-07T13:27:27.743Z,97919.00
2023-04-07T13:29:54.407Z,97918.06
2023-04-07T13:32:21.068Z,97915.31
2023-04-07T13:34:47.728Z,97909.31
2023-04-07T13:37:14.414Z,97912.47
2023-04-07T13:39:41.343Z,97908.59
2023-04-07T13:42:12.134Z,97914.81
2023-04-07T13:44:40.252Z,97917.00
2023-04-07T13:47:07.691Z,97910.84
2023-04-07T13:49:34.538Z,97911.97
2023-04-07T13:52:01.391Z,97908.66
2023-04-07T13:54:28.071Z,97914.09
2023-04-07T13:56:54.720Z,97913.72
2023-04-07T13:59:21.597Z,97915.72
2023-04-07T14:01:48.725Z,97916.03
2023-04-07T14:04:15.615Z,97912.56
2023-04-07T14:06:42.933Z,97908.56
2023-04-07T14:09:09.697Z,97911.16
2023-04-07T14:11:36.450Z,97914.19
2023-04-07T14:14:03.179Z,97909.47
2023-04-07T14:16:30.237Z,97905.53
2023-04-07T14:18:57.366Z,97908.94
2023-04-07T14:21:24.323Z,97913.19
2023-04-07T14:23:52.007Z,97916.91
2023-04-07T14:26:18.923Z,97910.53
2023-04-07T14:28:45.929Z,97915.50
2023-04-07T14:31:13.519Z,97915.19
2023-04-07T14:33:40.228Z,97925.28
2023-04-07T14:36:06.985Z,97922.81
2023-04-07T14:38:35.232Z,97932.16
2023-04-07T14:43:32.976Z,97932.28
2023-04-07T14:46:00.035Z,97932.16
2023-04-07T14:48:26.902Z,97933.34
2023-04-07T14:51:05.965Z,97932.28
2023-04-07T14:53:36.918Z,97936.63
2023-04-07T14:56:07.001Z,97925.88
2023-04-07T14:58:33.849Z,97930.47
2023-04-07T15:01:00.579Z,97931.59
2023-04-07T15:03:27.457Z,97935.31
2023-04-07T15:05:54.241Z,97927.41
2023-04-07T15:08:20.968Z,97930.53
2023-04-07T15:10:47.696Z,97927.34
2023-04-07T15:13:14.403Z,97931.41
2023-04-07T15:15:41.113Z,97927.87
2023-04-07T15:18:07.881Z,97932.28
2023-04-07T15:20:34.564Z,97935.66
2023-04-07T15:23:01.615Z,97934.16
2023-04-07T15:25:28.823Z,97940.03
2023-04-07T15:27:55.570Z,97934.91
2023-04-07T15:30:22.308Z,97934.41
2023-04-07T15:33:01.262Z,97933.28
2023-04-07T15:35:27.969Z,97930.31
2023-04-07T15:37:54.681Z,97928.87
2023-04-07T15:40:21.390Z,97928.37
2023-04-07T15:42:48.220Z,97921.53
2023-04-07T15:45:14.973Z,97918.16
2023-04-07T15:47:41.648Z,97919.66
2023-04-07T15:50:08.678Z,97922.25
2023-04-07T15:52:35.519Z,97912.56
2023-04-07T15:55:02.216Z,97914.94
2023-04-07T15:57:28.859Z,97914.22
2023-04-07T15:59:55.521Z,97916.38
2023-04-07T16:02:22.280Z,97903.75
2023-04-07T16:04:49.441Z,97903.19
2023-04-07T16:07:16.148Z,97904.53
2023-04-07T16:09:42.829Z,97904.41
2023-04-07T16:12:09.532Z,97901.06
2023-04-07T16:14:36.540Z,97912.91
2023-04-07T16:17:03.336Z,97909.53
2023-04-07T16:19:30.096Z,97918.94
2023-04-07T16:21:56.801Z,97918.22
2023-04-07T16:24:23.444Z,97923.28
2023-04-07T16:26:51.516Z,97915.16
2023-04-07T16:29:21.163Z,97917.47
2023-04-07T16:31:47.879Z,97927.28
2023-04-07T16:34:14.784Z,97921.84
2023-04-07T16:36:41.508Z,97924.47
2023-04-07T16:39:08.208Z,97927.28
2023-04-07T16:41:34.924Z,97941.94
2023-04-07T16:44:01.791Z,97940.69
2023-04-07T16:46:29.064Z,97942.91
2023-04-07T16:48:55.850Z,97941.16
2023-04-07T16:51:22.539Z,97949.63
2023-04-07T16:53:49.363Z,97953.97
2023-04-07T16:56:17.326Z,97961.72
2023-04-07T16:58:44.012Z,97946.78
2023-04-07T17:01:10.890Z,97949.22
2023-04-07T17:03:37.987Z,97967.59
2023-04-07T17:06:08.340Z,97966.97
2023-04-07T17:08:35.671Z,97964.06
2023-04-07T17:11:11.982Z,97963.25
2023-04-07T17:13:40.158Z,97970.75
2023-04-07T17:16:07.078Z,97966.41
2023-04-07T17:18:34.056Z,97967.25
2023-04-07T17:21:00.839Z,97974.44
2023-04-07T17:23:28.526Z,97970.88
2023-04-07T17:25:55.399Z,97960.94
2023-04-07T17:28:22.085Z,97973.06
2023-04-07T17:30:48.862Z,97968.50
2023-04-07T17:33:15.557Z,97964.66
2023-04-07T17:35:42.341Z,97964.16
2023-04-07T17:38:09.065Z,97966.97
2023-04-07T17:40:35.883Z,97966.37
2023-04-07T17:43:02.890Z,97967.88
2023-04-07T17:45:29.591Z,97978.12
2023-04-07T17:47:56.484Z,97980.50
2023-04-07T17:50:23.639Z,97988.75
2023-04-07T17:52:51.537Z,97987.91
2023-04-07T17:55:18.717Z,97988.69
2023-04-07T17:57:45.914Z,97992.78
2023-04-07T18:00:12.929Z,97999.50
2023-04-07T18:02:40.544Z,98001.31
2023-04-07T18:05:07.561Z,97999.13
2023-04-07T18:07:34.502Z,98009.56
2023-04-07T18:10:01.512Z,98013.47
2023-04-07T18:12:28.229Z,98014.94
2023-04-07T18:14:54.920Z,98009.31
2023-04-07T18:17:21.642Z,98013.38
2023-04-07T18:19:48.666Z,98020.84
2023-04-07T18:22:16.368Z,98020.81
2023-04-07T18:24:43.048Z,98025.53
2023-04-07T18:27:10.352Z,98026.44
2023-04-07T18:29:37.113Z,98032.16
2023-04-07T18:32:03.820Z,98030.75
2023-04-07T18:34:30.707Z,98022.00
2023-04-07T18:36:57.390Z,98028.94
2023-04-07T18:39:28.091Z,98031.31
2023-04-07T18:41:55.667Z,98035.37
2023-04-07T18:44:22.354Z,98037.25
2023-04-07T18:46:49.032Z,98038.91
2023-04-07T18:49:16.117Z,98044.78
2023-04-07T18:51:44.616Z,98043.28
2023-04-07T18:54:12.422Z,98045.56
2023-04-07T18:56:39.225Z,98052.09
2023-04-07T18:59:07.638Z,98048.19
2023-04-07T19:01:34.460Z,98035.91
2023-04-07T19:04:01.860Z,98040.41
2023-04-07T19:06:30.504Z,98047.75
2023-04-07T19:08:57.921Z,98045.75
2023-04-07T19:11:24.645Z,98051.13
2023-04-07T19:13:53.443Z,98061.50
2023-04-07T19:16:21.940Z,98065.87
2023-04-07T19:18:48.666Z,98062.56
2023-04-07T19:21:15.382Z,98065.94
2023-04-07T19:23:42.408Z,98063.44
2023-04-07T19:26:12.266Z,98061.69
2023-04-07T19:28:41.274Z,98066.84
2023-04-07T19:31:11.134Z,98063.31
2023-04-07T19:33:37.892Z,98065.81
2023-04-07T19:36:04.746Z,98061.09
2023-04-07T19:38:31.813Z,98065.94
2023-04-07T19:40:58.472Z,98068.53
2023-04-07T19:43:25.133Z,98067.09
2023-04-07T19:45:51.923Z,98066.00
2023-04-07T19:48:19.232Z,98067.44
2023-04-07T19:50:49.920Z,98072.81
2023-04-07T19:53:16.942Z,98079.34
2023-04-07T19:55:43.958Z,98073.66
2023-04-07T19:58:10.925Z,98072.72
2023-04-07T20:00:37.937Z,98066.88
2023-04-07T20:03:05.045Z,98073.00
2023-04-07T20:05:32.275Z,98068.59
2023-04-07T20:07:59.487Z,98074.25
2023-04-07T20:10:26.166Z,98061.94
2023-04-07T20:12:52.816Z,98066.13
2023-04-07T20:15:19.657Z,98060.94
2023-04-07T20:17:48.130Z,98062.06
2023-04-07T20:20:14.979Z,98057.41
2023-04-07T20:22:41.632Z,98050.28
2023-04-07T20:25:08.362Z,98046.03
2023-04-07T20:27:35.032Z,98055.38
2023-04-07T20:30:02.185Z,98058.94
2023-04-07T20:32:28.891Z,98064.09
2023-04-07T20:34:55.623Z,98068.22
2023-04-07T20:37:22.791Z,98072.78
2023-04-07T20:39:49.506Z,98076.16
2023-04-07T20:42:16.150Z,98075.88
2023-04-07T20:44:42.960Z,98074.25
2023-04-07T20:47:10.385Z,98068.81
2023-04-07T20:49:39.553Z,98075.47
2023-04-07T20:52:06.610Z,98070.00
2023-04-07T20:54:33.637Z,98077.72
2023-04-07T20:57:01.027Z,98081.81
2023-04-07T20:59:28.204Z,98080.19
2023-04-07T21:01:55.529Z,98074.97
2023-04-07T21:04:24.552Z,98080.03
2023-04-07T21:06:51.418Z,98069.97
2023-04-07T21:09:18.116Z,98081.09
2023-04-07T21:11:44.751Z,98078.56
2023-04-07T21:14:11.844Z,98078.94
2023-04-07T21:16:38.566Z,98084.75
2023-04-07T21:19:06.409Z,98083.94
2023-04-07T21:21:33.135Z,98083.34
2023-04-07T21:23:59.885Z,98080.75
2023-04-07T21:26:26.755Z,98074.53
2023-04-07T21:28:53.601Z,98080.63
2023-04-07T21:31:23.805Z,98080.03
2023-04-07T21:33:50.616Z,98087.44
2023-04-07T21:36:17.294Z,98078.34
2023-04-07T21:38:44.055Z,98077.16
2023-04-07T21:41:10.729Z,98077.06
2023-04-07T21:43:37.410Z,98081.41
2023-04-07T21:46:04.146Z,98078.28
2023-04-07T21:48:30.896Z,98077.78
2023-04-07T21:50:57.858Z,98084.97
2023-04-07T21:53:24.544Z,98092.56
2023-04-07T21:55:52.043Z,98089.72
2023-04-07T21:58:18.691Z,98091.22
2023-04-07T22:00:48.238Z,98086.75
2023-04-07T22:03:15.300Z,98081.56
2023-04-07T22:05:42.135Z,98087.31
2023-04-07T22:08:08.844Z,98079.56
2023-04-07T22:10:35.496Z,98090.00
2023-04-07T22:13:02.147Z,98082.69
2023-04-07T22:15:28.897Z,98086.69
2023-04-07T22:17:56.482Z,98084.44
2023-04-07T22:20:23.295Z,98079.87
2023-04-07T22:22:49.935Z,98085.69
2023-04-07T22:25:16.718Z,98088.47
2023-04-07T22:27:43.381Z,98087.34
2023-04-07T22:30:11.048Z,98088.00
2023-04-07T22:32:37.819Z,98095.81
2023-04-07T22:35:04.618Z,98083.25
2023-04-07T22:37:31.297Z,98090.97
2023-04-07T22:39:57.979Z,98083.38
2023-04-07T22:42:24.634Z,98092.59
2023-04-07T22:44:51.600Z,98087.34
2023-04-07T22:47:18.423Z,98083.88
2023-04-07T22:49:45.124Z,98091.25
2023-04-07T22:52:11.778Z,98093.97
2023-04-07T22:54:38.483Z,98092.91
2023-04-07T22:57:05.295Z,98096.09
2023-04-07T22:59:32.028Z,98096.28
2023-04-07T23:01:58.865Z,98097.53
2023-04-07T23:04:25.667Z,98100.50
2023-04-07T23:06:52.380Z,98102.87
2023-04-07T23:09:19.196Z,98097.72
2023-04-07T23:11:47.359Z,98099.47
2023-04-07T23:14:14.118Z,98094.81
2023-04-07T23:16:40.940Z,98094.75
2023-04-07T23:19:11.550Z,98094.59
2023-04-07T23:21:39.741Z,98096.50
2023-04-07T23:24:06.422Z,98101.25
2023-04-07T23:26:33.105Z,98099.97
2023-04-07T23:28:59.768Z,98093.91
2023-04-07T23:31:26.844Z,98098.16
2023-04-07T23:33:53.576Z,98098.97
2023-04-07T23:36:20.472Z,98102.16
2023-04-07T23:38:47.179Z,98095.22
2023-04-07T23:41:13.887Z,98094.25
2023-04-07T23:43:40.545Z,98089.47
2023-04-07T23:46:07.259Z,98088.31
2023-04-07T23:48:33.953Z,98084.25
2023-04-07T23:51:00.594Z,98093.44
2023-04-07T23:53:27.266Z,98081.03
2023-04-07T23:55:54.014Z,98083.28
2023-04-07T23:58:20.676Z,98081.19
